createdAt,value
2023-04-30T00:01:07.811Z,98926.43
2023-04-30T00:03:36.194Z,98923.05
2023-04-30T00:06:04.734Z,98924.48
2023-04-30T00:08:33.172Z,98924.50
2023-04-30T00:11:01.425Z,98923.16
2023-04-30T00:13:29.658Z,98924.20
2023-04-30T00:15:58.031Z,98928.15
2023-04-30T00:18:26.290Z,98927.79
2023-04-30T00:20:54.760Z,98928.63
2023-04-30T00:23:23.173Z,98927.54
2023-04-30T00:25:51.503Z,98928.37
2023-04-30T00:28:19.759Z,98929.41
2023-04-30T00:30:48.294Z,79143.20
2023-04-30T00:33:16.534Z,-1.00
2023-04-30T00:35:44.939Z,-1.00
2023-04-30T00:38:13.328Z,59358.61
2023-04-30T00:40:44.595Z,-1.00
2023-04-30T00:43:12.872Z,-1.00
2023-04-30T00:45:41.341Z,-1.00
2023-04-30T00:48:09.657Z,-1.00
2023-04-30T00:50:38.280Z,-1.00
2023-04-30T00:53:07.025Z,-1.00
2023-04-30T00:55:35.840Z,-1.00
2023-04-30T00:58:04.237Z,-1.00
2023-04-30T01:00:33.019Z,-1.00
2023-04-30T01:03:01.964Z,-1.00
2023-04-30T01:05:30.988Z,-1.00
2023-04-30T01:07:59.572Z,-1.00
2023-04-30T01:10:36.066Z,-1.00
2023-04-30T01:13:13.090Z,-1.00
2023-04-30T01:16:00.691Z,-1.00
2023-04-30T01:18:40.017Z,-1.00
2023-04-30T01:21:09.266Z,-1.00
2023-04-30T01:24:18.736Z,-1.00
2023-04-30T01:27:07.087Z,-1.00
2023-04-30T01:30:01.960Z,-1.00
2023-04-30T01:32:30.374Z,-1.00
2023-04-30T01:34:59.718Z,-1.00
2023-04-30T01:38:00.170Z,-1.00
2023-04-30T01:40:41.633Z,-1.00
2023-04-30T01:43:23.288Z,-1.00
2023-04-30T01:46:22.858Z,-1.00
2023-04-30T01:48:54.721Z,-1.00
2023-04-30T01:51:58.955Z,-1.00
2023-04-30T01:54:38.682Z,-1.00
2023-04-30T01:57:09.920Z,-1.00
2023-04-30T01:59:39.856Z,-1.00
2023-04-30T02:02:08.266Z,79156.48
2023-04-30T02:04:36.791Z,98945.34
2023-04-30T02:07:05.568Z,-1.00
2023-04-30T02:09:33.901Z,-1.00
2023-04-30T02:12:03.188Z,-1.00
2023-04-30T02:14:32.315Z,-1.00
2023-04-30T02:17:00.714Z,-1.00
2023-04-30T02:19:29.220Z,-1.00
2023-04-30T02:21:57.551Z,-1.00
2023-04-30T02:24:25.841Z,-1.00
2023-04-30T02:26:54.168Z,-1.00
2023-04-30T02:29:22.471Z,-1.00
2023-04-30T02:31:50.884Z,-1.00
2023-04-30T02:34:19.204Z,-1.00
2023-04-30T02:36:47.479Z,-1.00
2023-04-30T02:39:15.789Z,-1.00
2023-04-30T02:41:44.116Z,-1.00
2023-04-30T02:44:12.570Z,-1.00
2023-04-30T02:46:41.026Z,-1.00
2023-04-30T02:49:09.258Z,-1.00
2023-04-30T02:51:37.451Z,-1.00
2023-04-30T02:54:05.824Z,-1.00
2023-04-30T02:56:34.679Z,-1.00
2023-04-30T02:59:03.012Z,-1.00
2023-04-30T03:01:31.399Z,-1.00
2023-04-30T03:03:59.736Z,-1.00
2023-04-30T03:06:28.258Z,-1.00
2023-04-30T03:08:56.623Z,-1.00
2023-04-30T03:11:24.829Z,-1.00
2023-04-30T03:13:54.170Z,-1.00
2023-04-30T03:16:22.718Z,-1.00
2023-04-30T03:18:51.244Z,-1.00
2023-04-30T03:21:19.679Z,-1.00
2023-04-30T03:23:48.044Z,-1.00
2023-04-30T03:26:16.373Z,-1.00
2023-04-30T03:28:44.681Z,-1.00
2023-04-30T03:31:13.108Z,-1.00
2023-04-30T03:33:41.507Z,-1.00
2023-04-30T03:36:11.111Z,-1.00
2023-04-30T03:38:39.518Z,-1.00
2023-04-30T03:41:07.848Z,-1.00
2023-04-30T03:43:36.991Z,-1.00
2023-04-30T03:46:05.490Z,-1.00
2023-04-30T03:48:33.851Z,-1.00
2023-04-30T03:51:02.383Z,-1.00
2023-04-30T03:53:30.835Z,-1.00
2023-04-30T03:55:59.350Z,-1.00
2023-04-30T03:58:28.354Z,-1.00
2023-04-30T04:00:56.756Z,-1.00
2023-04-30T04:03:25.548Z,-1.00
2023-04-30T04:05:53.864Z,-1.00
2023-04-30T04:08:22.369Z,-1.00
2023-04-30T04:10:50.803Z,-1.00
2023-04-30T04:13:24.567Z,-1.00
2023-04-30T04:15:53.154Z,-1.00
2023-04-30T04:18:23.490Z,-1.00
2023-04-30T04:20:51.815Z,-1.00
2023-04-30T04:23:21.308Z,-1.00
2023-04-30T04:25:49.867Z,-1.00
2023-04-30T04:28:18.382Z,-1.00
2023-04-30T04:30:46.682Z,-1.00
2023-04-30T04:33:15.105Z,-1.00
2023-04-30T04:35:43.342Z,-1.00
2023-04-30T04:38:11.687Z,-1.00
2023-04-30T04:40:40.099Z,-1.00
2023-04-30T04:43:08.407Z,-1.00
2023-04-30T04:45:37.897Z,-1.00
2023-04-30T04:48:06.235Z,-1.00
2023-04-30T04:50:34.847Z,-1.00
2023-04-30T04:53:03.147Z,-1.00
2023-04-30T04:55:31.632Z,-1.00
2023-04-30T04:57:59.904Z,-1.00
2023-04-30T05:00:28.667Z,-1.00
2023-04-30T05:02:57.252Z,-1.00
2023-04-30T05:05:25.568Z,-1.00
2023-04-30T05:07:55.109Z,-1.00
2023-04-30T05:10:23.378Z,-1.00
2023-04-30T05:12:51.639Z,-1.00
2023-04-30T05:15:20.011Z,-1.00
2023-04-30T05:17:48.426Z,-1.00
2023-04-30T05:20:16.801Z,-1.00
2023-04-30T05:22:45.100Z,-1.00
2023-04-30T05:25:13.572Z,-1.00
2023-04-30T05:27:41.992Z,-1.00
2023-04-30T05:30:11.033Z,-1.00
2023-04-30T05:32:39.343Z,-1.00
2023-04-30T05:35:08.214Z,-1.00
2023-04-30T05:37:36.487Z,-1.00
2023-04-30T05:40:06.311Z,-1.00
2023-04-30T05:42:34.662Z,-1.00
2023-04-30T05:45:03.300Z,-1.00
2023-04-30T05:47:31.492Z,-1.00
2023-04-30T05:49:59.703Z,-1.00
2023-04-30T05:52:28.104Z,-1.00
2023-04-30T05:54:56.417Z,-1.00
2023-04-30T05:57:24.690Z,-1.00
2023-04-30T05:59:54.017Z,-1.00
2023-04-30T06:02:23.218Z,-1.00
2023-04-30T06:04:51.779Z,-1.00
2023-04-30T06:07:19.985Z,-1.00
2023-04-30T06:09:48.610Z,-1.00
2023-04-30T06:12:16.901Z,-1.00
2023-04-30T06:14:46.013Z,-1.00
2023-04-30T06:17:14.328Z,-1.00
2023-04-30T06:19:42.743Z,-1.00
2023-04-30T06:22:11.089Z,-1.00
2023-04-30T06:24:39.588Z,-1.00
2023-04-30T06:27:07.864Z,-1.00
2023-04-30T06:29:36.397Z,-1.00
2023-04-30T06:32:07.764Z,-1.00
2023-04-30T06:34:37.172Z,-1.00
2023-04-30T06:37:05.780Z,-1.00
2023-04-30T06:39:34.260Z,-1.00
2023-04-30T06:42:02.506Z,-1.00
2023-04-30T06:44:30.987Z,-1.00
2023-04-30T06:46:59.978Z,-1.00
2023-04-30T06:49:29.243Z,-1.00
2023-04-30T06:51:58.731Z,-1.00
2023-04-30T06:54:28.211Z,-1.00
2023-04-30T06:56:56.993Z,-1.00
2023-04-30T06:59:25.495Z,-1.00
2023-04-30T07:01:55.657Z,-1.00
2023-04-30T07:04:24.710Z,-1.00
2023-04-30T07:06:53.157Z,-1.00
2023-04-30T07:09:21.809Z,-1.00
2023-04-30T07:11:51.392Z,-1.00
2023-04-30T07:14:19.973Z,-1.00
2023-04-30T07:16:50.979Z,-1.00
2023-04-30T07:19:19.987Z,-1.00
2023-04-30T07:21:48.478Z,-1.00
2023-04-30T07:24:19.891Z,-1.00
2023-04-30T07:26:49.883Z,-1.00
2023-04-30T07:29:22.490Z,-1.00
2023-04-30T07:31:51.809Z,-1.00
2023-04-30T07:34:20.287Z,-1.00
2023-04-30T07:36:49.037Z,-1.00
2023-04-30T07:39:18.043Z,-1.00
2023-04-30T07:41:46.468Z,-1.00
2023-04-30T07:44:14.858Z,-1.00
2023-04-30T07:46:43.512Z,-1.00
2023-04-30T07:49:12.034Z,-1.00
2023-04-30T07:51:43.888Z,-1.00
2023-04-30T07:54:12.699Z,-1.00
2023-04-30T07:56:41.993Z,-1.00
2023-04-30T07:59:10.362Z,-1.00
2023-04-30T08:01:39.594Z,-1.00
2023-04-30T08:04:08.211Z,-1.00
2023-04-30T08:06:37.022Z,-1.00
2023-04-30T08:09:05.738Z,-1.00
2023-04-30T08:11:34.223Z,-1.00
2023-04-30T08:14:03.408Z,-1.00
2023-04-30T08:16:32.003Z,-1.00
2023-04-30T08:19:00.673Z,-1.00
2023-04-30T08:21:31.618Z,-1.00
2023-04-30T08:24:00.003Z,-1.00
2023-04-30T08:26:30.645Z,-1.00
2023-04-30T08:28:59.384Z,-1.00
2023-04-30T08:31:27.981Z,-1.00
2023-04-30T08:33:56.479Z,-1.00
2023-04-30T08:36:24.979Z,-1.00
2023-04-30T08:38:53.888Z,-1.00
2023-04-30T08:41:27.196Z,-1.00
2023-04-30T08:43:58.164Z,-1.00
2023-04-30T08:46:26.946Z,-1.00
2023-04-30T08:48:55.944Z,-1.00
2023-04-30T08:51:27.853Z,-1.00
2023-04-30T08:53:57.902Z,-1.00
2023-04-30T08:56:26.430Z,-1.00
2023-04-30T08:58:54.939Z,-1.00
2023-04-30T09:01:24.115Z,-1.00
2023-04-30T09:03:55.923Z,-1.00
2023-04-30T09:06:25.095Z,-1.00
2023-04-30T09:08:54.474Z,-1.00
2023-04-30T09:11:28.095Z,-1.00
2023-04-30T09:14:00.157Z,-1.00
2023-04-30T09:16:33.242Z,-1.00
2023-04-30T09:19:05.723Z,-1.00
2023-04-30T09:21:37.833Z,-1.00
2023-04-30T09:24:06.581Z,-1.00
2023-04-30T09:26:38.302Z,-1.00
2023-04-30T09:29:08.843Z,-1.00
2023-04-30T09:31:40.861Z,-1.00
2023-04-30T09:34:09.429Z,-1.00
2023-04-30T09:36:55.495Z,-1.00
2023-04-30T09:39:24.179Z,-1.00
2023-04-30T09:43:04.424Z,99358.33
2023-04-30T09:45:53.072Z,99360.48
2023-04-30T09:48:28.260Z,99365.69
2023-04-30T09:50:58.503Z,99362.34
2023-04-30T09:53:27.033Z,99362.00
2023-04-30T09:55:59.263Z,99359.75
2023-04-30T09:58:30.709Z,99357.20
2023-04-30T10:01:01.762Z,99355.27
2023-04-30T10:03:36.865Z,99356.96
2023-04-30T10:06:08.228Z,99356.84
2023-04-30T10:08:43.946Z,99358.78
2023-04-30T10:11:29.441Z,99353.94
2023-04-30T10:14:20.431Z,99351.42
2023-04-30T10:17:06.944Z,99351.85
2023-04-30T10:19:41.878Z,99345.44
2023-04-30T10:22:11.138Z,99345.95
2023-04-30T10:24:39.962Z,99347.46
2023-04-30T10:27:08.800Z,99350.58
2023-04-30T10:29:37.115Z,99352.07
2023-04-30T10:32:06.838Z,99346.08
2023-04-30T10:34:46.005Z,99345.16
2023-04-30T10:37:45.678Z,99346.18
2023-04-30T10:40:15.132Z,99343.73
2023-04-30T10:42:47.493Z,99341.24
2023-04-30T10:45:20.878Z,99339.08
2023-04-30T10:47:49.471Z,99341.78
2023-04-30T10:50:18.758Z,99339.64
2023-04-30T10:52:47.107Z,99337.16
2023-04-30T10:55:17.472Z,99347.10
2023-04-30T10:57:48.541Z,99340.11
2023-04-30T11:00:26.030Z,99342.55
2023-04-30T11:03:04.090Z,99336.75
2023-04-30T11:05:39.277Z,99336.50
2023-04-30T11:08:11.974Z,99336.79
2023-04-30T11:11:00.469Z,99329.98
2023-04-30T11:13:28.950Z,99327.33
2023-04-30T11:16:04.739Z,99325.48
2023-04-30T11:18:33.437Z,99326.30
2023-04-30T11:21:12.428Z,99327.88
2023-04-30T11:23:45.936Z,99328.45
2023-04-30T11:26:18.960Z,99327.91
2023-04-30T11:28:53.557Z,99329.13
2023-04-30T11:31:23.039Z,99328.88
2023-04-30T11:33:52.520Z,99331.13
2023-04-30T11:36:29.827Z,99329.77
2023-04-30T11:39:06.334Z,99330.70
2023-04-30T11:41:44.037Z,99329.70
2023-04-30T11:44:31.049Z,99327.54
2023-04-30T11:47:03.293Z,99326.14
2023-04-30T11:49:37.869Z,99325.35
2023-04-30T11:52:14.821Z,99324.06
2023-04-30T11:54:43.937Z,99325.23
2023-04-30T11:57:17.000Z,99330.04
2023-04-30T11:59:46.158Z,99328.14
2023-04-30T12:02:22.567Z,99333.55
2023-04-30T12:04:54.710Z,99329.64
2023-04-30T12:07:26.503Z,99323.86
2023-04-30T12:10:01.900Z,99328.01
2023-04-30T12:12:35.510Z,99329.94
2023-04-30T12:15:27.280Z,99326.61
2023-04-30T12:18:00.276Z,99328.19
2023-04-30T12:20:32.999Z,99326.50
2023-04-30T12:23:04.468Z,99332.73
2023-04-30T12:25:42.174Z,99330.08
2023-04-30T12:28:14.070Z,99329.15
2023-04-30T12:30:43.862Z,99326.70
2023-04-30T12:33:12.185Z,99329.35
2023-04-30T12:35:43.556Z,99326.95
2023-04-30T12:38:18.515Z,99327.69
2023-04-30T12:40:50.777Z,99323.45
2023-04-30T12:43:19.290Z,99320.98
2023-04-30T12:45:55.264Z,99323.83
2023-04-30T12:48:25.947Z,99324.88
2023-04-30T12:51:02.174Z,99326.73
2023-04-30T12:53:32.132Z,99325.16
2023-04-30T12:56:16.470Z,99327.96
2023-04-30T12:58:47.615Z,99327.02
2023-04-30T13:01:25.426Z,99325.93
2023-04-30T13:03:54.262Z,99318.61
2023-04-30T13:06:23.766Z,99312.64
2023-04-30T13:08:58.531Z,99315.60
2023-04-30T13:11:27.862Z,99316.35
2023-04-30T13:13:56.839Z,99315.34
2023-04-30T13:16:25.648Z,99313.08
2023-04-30T13:18:55.213Z,99311.50
2023-04-30T13:21:25.145Z,99309.54
2023-04-30T13:23:54.843Z,99311.09
2023-04-30T13:26:23.993Z,99304.10
2023-04-30T13:28:52.520Z,99301.39
2023-04-30T13:31:20.962Z,99306.03
2023-04-30T13:33:50.369Z,99305.82
2023-04-30T13:36:18.660Z,99303.65
2023-04-30T13:38:47.153Z,99301.52
2023-04-30T13:41:15.637Z,99302.95
2023-04-30T13:43:44.794Z,99307.38
2023-04-30T13:46:13.476Z,99308.06
2023-04-30T13:48:48.348Z,99301.06
2023-04-30T13:51:16.694Z,99307.09
2023-04-30T13:53:45.162Z,99302.89
2023-04-30T13:56:15.414Z,99299.98
2023-04-30T13:58:44.382Z,99303.78
2023-04-30T14:01:14.094Z,99308.80
2023-04-30T14:03:43.629Z,99304.17
2023-04-30T14:06:12.251Z,99308.33
2023-04-30T14:08:40.678Z,99312.42
2023-04-30T14:11:10.308Z,99312.84
2023-04-30T14:13:38.575Z,99307.90
2023-04-30T14:16:07.397Z,99307.48
2023-04-30T14:18:38.923Z,99308.64
2023-04-30T14:21:08.876Z,99309.11
2023-04-30T14:23:39.343Z,99311.06
2023-04-30T14:26:07.784Z,99312.14
2023-04-30T14:28:37.672Z,99314.52
2023-04-30T14:31:07.882Z,99312.00
2023-04-30T14:33:59.875Z,99312.23
2023-04-30T14:36:30.396Z,99308.45
2023-04-30T14:38:59.563Z,99312.27
2023-04-30T14:41:30.357Z,99311.69
2023-04-30T14:44:00.199Z,99314.31
2023-04-30T14:46:29.062Z,99315.65
2023-04-30T14:48:57.837Z,99315.38
2023-04-30T14:51:26.203Z,99313.55
2023-04-30T14:54:03.986Z,99316.22
2023-04-30T14:56:33.361Z,99314.24
2023-04-30T14:59:07.844Z,99317.20
2023-04-30T15:01:43.280Z,99318.67
2023-04-30T15:04:12.030Z,99320.94
2023-04-30T15:06:43.456Z,99320.77
2023-04-30T15:09:18.440Z,99322.77
2023-04-30T15:11:47.040Z,99323.02
2023-04-30T15:14:17.157Z,99327.36
2023-04-30T15:16:46.891Z,99324.94
2023-04-30T15:19:19.227Z,99321.42
2023-04-30T15:21:49.115Z,99324.90
2023-04-30T15:27:06.863Z,99326.38
2023-04-30T15:29:42.494Z,99327.83
2023-04-30T15:32:15.811Z,99329.98
2023-04-30T15:34:45.317Z,99328.50
2023-04-30T15:37:13.769Z,99330.02
2023-04-30T15:39:43.808Z,99329.73
2023-04-30T15:42:18.546Z,99329.27
2023-04-30T15:44:50.893Z,99329.04
2023-04-30T15:47:23.898Z,99330.41
2023-04-30T15:49:57.355Z,99335.94
2023-04-30T15:52:30.235Z,99335.42
2023-04-30T15:55:11.488Z,99335.36
2023-04-30T15:57:49.254Z,99335.56
2023-04-30T16:00:18.794Z,99337.04
2023-04-30T16:02:47.349Z,99333.73
2023-04-30T16:05:15.686Z,99331.91
2023-04-30T16:07:45.692Z,99335.48
2023-04-30T16:10:14.751Z,99335.45
2023-04-30T16:12:43.079Z,99336.98
2023-04-30T16:15:11.869Z,99336.90
2023-04-30T16:17:41.236Z,99334.14
2023-04-30T16:20:11.504Z,99338.16
2023-04-30T16:22:39.995Z,99341.56
2023-04-30T16:25:10.147Z,99342.05
2023-04-30T16:27:40.543Z,99341.53
2023-04-30T16:30:09.743Z,99344.98
2023-04-30T16:32:38.047Z,99338.44
2023-04-30T16:35:06.860Z,99339.36
2023-04-30T16:37:35.924Z,99343.79
2023-04-30T16:40:06.461Z,99346.45
2023-04-30T16:42:35.096Z,99348.23
2023-04-30T16:45:04.920Z,99352.91
2023-04-30T16:47:33.337Z,99352.23
2023-04-30T16:50:02.195Z,99354.42
2023-04-30T16:52:31.134Z,99354.17
2023-04-30T16:54:59.610Z,99354.17
2023-04-30T16:57:31.600Z,99352.66
2023-04-30T17:00:00.144Z,99355.23
2023-04-30T17:02:34.119Z,99357.31
2023-04-30T17:05:05.200Z,99360.23
2023-04-30T17:07:34.872Z,99361.30
2023-04-30T17:10:09.502Z,99362.83
2023-04-30T17:12:38.792Z,99367.55
2023-04-30T17:15:09.202Z,99367.05
2023-04-30T17:17:51.049Z,99368.38
2023-04-30T17:20:22.058Z,99372.23
2023-04-30T17:22:51.160Z,99376.49
2023-04-30T17:25:19.638Z,99372.90
2023-04-30T17:27:48.018Z,99375.50
2023-04-30T17:30:27.633Z,99377.84
2023-04-30T17:32:56.800Z,99381.08
2023-04-30T17:35:25.289Z,99389.92
2023-04-30T17:37:54.206Z,99391.17
2023-04-30T17:40:22.731Z,99395.11
2023-04-30T17:42:52.090Z,99396.77
2023-04-30T17:45:20.437Z,99400.04
2023-04-30T17:47:48.835Z,99403.30
2023-04-30T17:50:17.365Z,99407.83
2023-04-30T17:52:45.994Z,99407.30
2023-04-30T17:55:17.957Z,99411.65
2023-04-30T17:57:48.513Z,99414.45
2023-04-30T18:00:30.101Z,99417.71
2023-04-30T18:03:35.332Z,99419.12
2023-04-30T18:06:20.757Z,99422.61
2023-04-30T18:09:07.466Z,99426.70
2023-04-30T18:11:43.651Z,99432.09
2023-04-30T18:14:20.561Z,99437.57
2023-04-30T18:17:05.029Z,99439.90
2023-04-30T18:19:44.853Z,99441.76
2023-04-30T18:22:19.783Z,99443.23
2023-04-30T18:25:01.636Z,99445.21
2023-04-30T18:27:35.192Z,99451.06
2023-04-30T18:30:14.296Z,99457.92
2023-04-30T18:32:47.451Z,99461.48
2023-04-30T18:35:23.825Z,99466.70
2023-04-30T18:37:57.664Z,99470.17
2023-04-30T18:40:26.666Z,99471.76
2023-04-30T18:43:06.679Z,99477.29
2023-04-30T18:45:35.829Z,99482.51
2023-04-30T18:48:05.795Z,99487.52
2023-04-30T18:50:34.817Z,99490.44
2023-04-30T18:53:13.020Z,99493.92
2023-04-30T18:55:48.482Z,99493.50
2023-04-30T18:58:17.173Z,99500.31
2023-04-30T19:00:49.250Z,99500.91
2023-04-30T19:03:18.186Z,99503.05
2023-04-30T19:06:12.498Z,99504.06
2023-04-30T19:08:40.988Z,99508.71
2023-04-30T19:11:11.583Z,99508.48
2023-04-30T19:13:39.845Z,99511.08
2023-04-30T19:16:08.292Z,99511.94
2023-04-30T19:18:38.646Z,99513.85
2023-04-30T19:21:07.288Z,99518.55
2023-04-30T19:23:36.002Z,99518.84
2023-04-30T19:26:04.428Z,99523.60
2023-04-30T19:29:04.772Z,99528.94
2023-04-30T19:31:35.266Z,99529.85
2023-04-30T19:34:03.940Z,99533.20
2023-04-30T19:36:32.464Z,99537.72
2023-04-30T19:39:00.918Z,99544.15
2023-04-30T19:41:29.197Z,99544.27
2023-04-30T19:43:57.437Z,99542.85
2023-04-30T19:46:26.037Z,99543.03
2023-04-30T19:48:54.280Z,99544.86
2023-04-30T19:51:22.609Z,99548.09
2023-04-30T19:53:52.418Z,99550.41
2023-04-30T19:56:20.887Z,99551.64
2023-04-30T19:58:49.239Z,99548.13
2023-04-30T20:01:18.685Z,99549.70
2023-04-30T20:03:47.168Z,99551.46
2023-04-30T20:06:15.683Z,99555.04
2023-04-30T20:08:44.046Z,99558.60
2023-04-30T20:11:12.254Z,99559.67
2023-04-30T20:13:41.811Z,99560.91
2023-04-30T20:16:12.799Z,99561.12
2023-04-30T20:18:42.237Z,99566.42
2023-04-30T20:21:10.733Z,99568.85
2023-04-30T20:23:42.265Z,99569.98
2023-04-30T20:26:11.589Z,99574.83
2023-04-30T20:28:40.111Z,99575.54
2023-04-30T20:31:10.210Z,99581.83
2023-04-30T20:33:41.327Z,99583.42
2023-04-30T20:36:09.712Z,99587.64
2023-04-30T20:38:38.273Z,99584.30
2023-04-30T20:41:06.608Z,99584.73
2023-04-30T20:43:34.898Z,99587.23
2023-04-30T20:46:03.389Z,99586.60
2023-04-30T20:48:31.756Z,99591.47
2023-04-30T20:50:59.974Z,99595.15
2023-04-30T20:53:28.385Z,99599.63
2023-04-30T20:56:00.212Z,99597.89
2023-04-30T20:58:28.850Z,99596.23
2023-04-30T21:00:57.205Z,99599.00
2023-04-30T21:03:25.881Z,99597.77
2023-04-30T21:05:54.324Z,99601.14
2023-04-30T21:08:22.695Z,99599.39
2023-04-30T21:10:51.101Z,99598.89
2023-04-30T21:13:19.599Z,99601.71
2023-04-30T21:15:49.012Z,99601.56
2023-04-30T21:18:17.551Z,99601.22
2023-04-30T21:20:46.280Z,99601.39
2023-04-30T21:23:14.717Z,99602.77
2023-04-30T21:25:45.431Z,99603.67
2023-04-30T21:28:13.608Z,99607.16
2023-04-30T21:30:42.132Z,99604.89
2023-04-30T21:33:10.461Z,99609.88
2023-04-30T21:35:39.580Z,99609.21
2023-04-30T21:38:08.215Z,99606.42
2023-04-30T21:40:36.497Z,99606.60
2023-04-30T21:43:04.982Z,99608.61
2023-04-30T21:45:33.374Z,99612.34
2023-04-30T21:48:01.765Z,99617.16
2023-04-30T21:50:33.688Z,99616.67
2023-04-30T21:53:03.427Z,99622.29
2023-04-30T21:55:31.813Z,99622.84
2023-04-30T21:58:00.316Z,99624.75
2023-04-30T22:00:28.723Z,99629.30
2023-04-30T22:02:57.111Z,99628.24
2023-04-30T22:05:26.066Z,99628.76
2023-04-30T22:07:55.166Z,99631.41
2023-04-30T22:10:25.836Z,99636.64
2023-04-30T22:12:54.239Z,99637.20
2023-04-30T22:15:22.849Z,99636.52
2023-04-30T22:17:51.425Z,99637.86
2023-04-30T22:20:19.790Z,99637.95
2023-04-30T22:22:48.191Z,99642.93
2023-04-30T22:25:17.962Z,99639.90
2023-04-30T22:27:47.264Z,99643.87
2023-04-30T22:30:16.328Z,99646.76
2023-04-30T22:32:45.325Z,99646.73
2023-04-30T22:35:17.185Z,99645.62
2023-04-30T22:37:45.995Z,99647.48
2023-04-30T22:40:14.767Z,99651.07
2023-04-30T22:42:43.933Z,99653.05
2023-04-30T22:45:12.771Z,99652.44
2023-04-30T22:47:42.114Z,99657.07
2023-04-30T22:50:10.778Z,99656.66
2023-04-30T22:52:39.264Z,99658.19
2023-04-30T22:55:08.325Z,99656.54
2023-04-30T22:57:36.694Z,99660.86
2023-04-30T23:00:05.832Z,99661.65
2023-04-30T23:02:34.430Z,99661.62
2023-04-30T23:05:03.744Z,99663.80
2023-04-30T23:07:32.225Z,99665.14
2023-04-30T23:10:00.568Z,99666.29
2023-04-30T23:12:29.307Z,99664.05
2023-04-30T23:14:57.587Z,99663.59
2023-04-30T23:17:27.301Z,99662.86
2023-04-30T23:19:55.850Z,99662.97
2023-04-30T23:22:24.588Z,99663.06
2023-04-30T23:24:53.153Z,99669.33
2023-04-30T23:27:21.392Z,99665.23
2023-04-30T23:29:49.707Z,99663.77
2023-04-30T23:32:18.648Z,99674.31
2023-04-30T23:34:47.713Z,99669.48
2023-04-30T23:37:19.022Z,99674.71
2023-04-30T23:39:47.424Z,99675.63
2023-04-30T23:42:15.739Z,99675.52
2023-04-30T23:44:44.104Z,99675.57
2023-04-30T23:47:12.726Z,99675.67
2023-04-30T23:49:41.184Z,99675.23
2023-04-30T23:52:09.707Z,99678.95
2023-04-30T23:54:38.259Z,99677.63
2023-04-30T23:57:06.591Z,99676.97
2023-04-30T23:59:34.892Z,99678.77
